createdAt,value
2023-04-11T00:01:49.808Z,99.90
2023-04-11T00:04:17.573Z,99.90
2023-04-11T00:06:44.870Z,99.90
2023-04-11T00:09:12.631Z,99.90
2023-04-11T00:11:39.758Z,99.90
2023-04-11T00:14:09.231Z,99.90
2023-04-11T00:16:36.382Z,99.90
2023-04-11T00:19:03.504Z,99.90
2023-04-11T00:21:30.620Z,99.90
2023-04-11T00:23:57.704Z,99.90
2023-04-11T00:26:24.871Z,99.90
2023-04-11T00:28:52.002Z,99.90
2023-04-11T00:31:19.061Z,99.90
2023-04-11T00:33:46.299Z,99.90
2023-04-11T00:36:13.546Z,99.90
2023-04-11T00:38:40.753Z,99.90
2023-04-11T00:41:08.455Z,99.90
2023-04-11T00:43:35.514Z,99.90
2023-04-11T00:46:03.724Z,99.90
2023-04-11T00:48:31.723Z,99.90
2023-04-11T00:50:58.926Z,99.90
2023-04-11T00:53:26.237Z,99.90
2023-04-11T00:55:53.376Z,99.90
2023-04-11T00:58:20.841Z,99.90
2023-04-11T01:00:50.103Z,99.90
2023-04-11T01:03:19.313Z,99.90
2023-04-11T01:05:49.166Z,99.90
2023-04-11T01:08:17.594Z,99.90
2023-04-11T01:10:44.857Z,99.90
2023-04-11T01:13:13.164Z,99.90
2023-04-11T01:15:40.384Z,99.90
2023-04-11T01:18:09.284Z,99.90
2023-04-11T01:20:38.593Z,99.90
2023-04-11T01:23:06.598Z,99.90
2023-04-11T01:25:33.711Z,99.90
2023-04-11T01:28:00.978Z,99.90
2023-04-11T01:30:28.270Z,99.90
2023-04-11T01:32:55.572Z,99.90
2023-04-11T01:35:22.767Z,99.90
2023-04-11T01:37:49.933Z,99.90
2023-04-11T01:40:19.258Z,99.90
2023-04-11T01:42:48.073Z,99.90
2023-04-11T01:45:15.441Z,99.90
2023-04-11T01:47:42.683Z,99.90
2023-04-11T01:50:10.037Z,99.90
2023-04-11T01:52:37.131Z,99.90
2023-04-11T01:55:05.015Z,99.90
2023-04-11T01:57:32.409Z,99.90
2023-04-11T01:59:59.896Z,99.90
2023-04-11T02:02:27.153Z,99.90
2023-04-11T02:04:54.282Z,99.90
2023-04-11T02:07:21.486Z,99.90
2023-04-11T02:09:48.588Z,99.90
2023-04-11T02:12:15.968Z,99.90
2023-04-11T02:14:45.349Z,99.90
2023-04-11T02:17:13.416Z,99.90
2023-04-11T02:19:45.647Z,99.90
2023-04-11T02:22:13.319Z,99.90
2023-04-11T02:24:40.673Z,99.90
2023-04-11T02:27:08.131Z,99.90
2023-04-11T02:29:35.628Z,99.90
2023-04-11T02:32:02.852Z,99.90
2023-04-11T02:34:30.028Z,99.90
2023-04-11T02:36:57.173Z,99.90
2023-04-11T02:39:24.482Z,99.90
2023-04-11T02:41:51.817Z,99.90
2023-04-11T02:44:19.709Z,99.90
2023-04-11T02:46:46.945Z,99.90
2023-04-11T02:49:14.113Z,99.90
2023-04-11T02:51:41.398Z,99.90
2023-04-11T02:54:08.752Z,99.90
2023-04-11T02:56:39.093Z,99.90
2023-04-11T02:59:07.284Z,99.90
2023-04-11T03:01:34.746Z,99.90
2023-04-11T03:04:01.930Z,99.90
2023-04-11T03:06:29.424Z,99.90
2023-04-11T03:08:57.057Z,99.90
2023-04-11T03:11:24.242Z,99.90
2023-04-11T03:13:51.578Z,99.90
2023-04-11T03:16:18.631Z,99.90
2023-04-11T03:18:45.869Z,99.90
2023-04-11T03:21:13.078Z,99.90
2023-04-11T03:23:40.582Z,99.90
2023-04-11T03:26:08.229Z,99.90
2023-04-11T03:28:35.472Z,99.90
2023-04-11T03:31:02.573Z,99.90
2023-04-11T03:33:29.724Z,99.90
2023-04-11T03:35:56.952Z,99.90
2023-04-11T03:38:24.769Z,99.90
2023-04-11T03:40:51.892Z,99.90
2023-04-11T03:43:19.606Z,99.90
2023-04-11T03:45:46.885Z,99.90
2023-04-11T03:48:13.974Z,99.90
2023-04-11T03:50:41.210Z,99.90
2023-04-11T03:53:08.351Z,99.90
2023-04-11T03:55:35.411Z,99.90
2023-04-11T03:58:02.498Z,99.90
2023-04-11T04:00:29.678Z,99.90
2023-04-11T04:02:57.194Z,99.90
2023-04-11T04:05:24.548Z,99.90
2023-04-11T04:07:51.966Z,99.90
2023-04-11T04:10:20.088Z,99.90
2023-04-11T04:12:47.083Z,99.90
2023-04-11T04:15:15.152Z,99.90
2023-04-11T04:17:42.948Z,99.90
2023-04-11T04:20:11.137Z,99.90
2023-04-11T04:22:38.733Z,99.90
2023-04-11T04:25:06.380Z,99.90
2023-04-11T04:27:33.593Z,99.90
2023-04-11T04:30:04.217Z,99.90
2023-04-11T04:32:31.804Z,99.90
2023-04-11T04:34:59.078Z,99.90
2023-04-11T04:37:27.313Z,99.90
2023-04-11T04:39:56.248Z,99.90
2023-04-11T04:42:24.231Z,99.90
2023-04-11T04:44:52.636Z,99.90
2023-04-11T04:47:22.559Z,99.90
2023-04-11T04:49:50.082Z,99.90
2023-04-11T04:52:17.260Z,99.90
2023-04-11T04:54:44.367Z,99.90
2023-04-11T04:57:11.484Z,99.90
2023-04-11T04:59:38.641Z,99.90
2023-04-11T05:02:05.858Z,99.90
2023-04-11T05:04:34.368Z,99.90
2023-04-11T05:07:01.675Z,99.90
2023-04-11T05:09:28.933Z,99.90
2023-04-11T05:11:56.911Z,99.90
2023-04-11T05:14:23.996Z,99.90
2023-04-11T05:16:51.698Z,99.90
2023-04-11T05:19:18.811Z,99.90
2023-04-11T05:21:45.886Z,99.90
2023-04-11T05:24:13.003Z,99.90
2023-04-11T05:26:40.100Z,99.90
2023-04-11T05:29:07.322Z,99.90
2023-04-11T05:31:35.970Z,99.90
2023-04-11T05:34:03.029Z,99.90
2023-04-11T05:36:30.846Z,99.90
2023-04-11T05:38:57.987Z,99.90
2023-04-11T05:41:25.659Z,99.90
2023-04-11T05:43:52.816Z,99.90
2023-04-11T05:46:19.991Z,99.90
2023-04-11T05:48:47.144Z,99.90
2023-04-11T05:51:14.250Z,99.90
2023-04-11T05:53:41.420Z,99.90
2023-04-11T05:56:09.079Z,99.90
2023-04-11T05:58:37.784Z,99.90
2023-04-11T06:01:07.666Z,99.90
2023-04-11T06:03:35.103Z,99.90
2023-04-11T06:06:02.377Z,99.90
2023-04-11T06:08:29.672Z,99.90
2023-04-11T06:10:56.964Z,99.90
2023-04-11T06:13:24.372Z,99.90
2023-04-11T06:15:51.539Z,99.90
2023-04-11T06:18:18.729Z,99.90
2023-04-11T06:20:47.260Z,99.90
2023-04-11T06:23:14.905Z,99.90
2023-04-11T06:25:42.063Z,99.90
2023-04-11T06:28:09.649Z,99.90
2023-04-11T06:30:36.910Z,99.90
2023-04-11T06:33:04.207Z,99.90
2023-04-11T06:35:31.433Z,99.90
2023-04-11T06:37:58.659Z,99.90
2023-04-11T06:40:27.197Z,99.90
2023-04-11T06:42:55.572Z,99.90
2023-04-11T06:45:22.600Z,99.90
2023-04-11T06:47:50.398Z,99.90
2023-04-11T06:50:17.810Z,99.90
2023-04-11T06:52:44.981Z,99.90
2023-04-11T06:55:15.615Z,99.90
2023-04-11T06:57:44.043Z,99.90
2023-04-11T07:00:13.218Z,99.90
2023-04-11T07:02:41.215Z,99.90
2023-04-11T07:05:12.142Z,99.80
2023-04-11T07:07:39.828Z,98.90
2023-04-11T07:10:07.530Z,94.10
2023-04-11T07:12:34.631Z,94.30
2023-04-11T07:15:04.933Z,95.00
2023-04-11T07:17:32.084Z,98.30
2023-04-11T07:19:59.218Z,97.00
2023-04-11T07:22:26.467Z,97.40
2023-04-11T07:24:55.494Z,98.60
2023-04-11T07:27:23.651Z,97.70
2023-04-11T07:29:50.869Z,98.20
2023-04-11T07:32:18.484Z,97.40
2023-04-11T07:34:47.553Z,96.00
2023-04-11T07:37:17.936Z,95.70
2023-04-11T07:39:50.479Z,95.80
2023-04-11T07:42:21.433Z,95.20
2023-04-11T07:44:53.575Z,92.90
2023-04-11T07:47:24.293Z,92.90
2023-04-11T07:49:55.087Z,91.70
2023-04-11T07:52:26.003Z,91.10
2023-04-11T07:54:57.752Z,91.30
2023-04-11T07:57:27.913Z,90.10
2023-04-11T07:59:58.903Z,81.10
2023-04-11T08:02:29.989Z,75.90
2023-04-11T08:05:01.160Z,70.60
2023-04-11T08:07:32.384Z,74.70
2023-04-11T08:10:04.043Z,78.40
2023-04-11T08:12:32.773Z,81.70
2023-04-11T08:15:00.948Z,79.40
2023-04-11T08:17:30.702Z,80.60
2023-04-11T08:19:57.954Z,81.30
2023-04-11T08:22:25.069Z,85.70
2023-04-11T08:24:52.637Z,73.70
2023-04-11T08:27:20.154Z,67.20
2023-04-11T08:29:47.186Z,67.70
2023-04-11T08:32:14.253Z,67.70
2023-04-11T08:34:41.530Z,67.10
2023-04-11T08:37:08.987Z,68.20
2023-04-11T08:39:36.337Z,63.80
2023-04-11T08:42:04.736Z,61.00
2023-04-11T08:44:31.829Z,60.00
2023-04-11T08:47:00.588Z,60.30
2023-04-11T08:49:28.156Z,59.60
2023-04-11T08:51:57.276Z,60.70
2023-04-11T08:54:25.701Z,57.90
2023-04-11T08:56:53.467Z,58.80
2023-04-11T08:59:20.729Z,58.50
2023-04-11T09:01:49.275Z,56.90
2023-04-11T09:04:16.402Z,56.70
2023-04-11T09:07:00.502Z,59.20
2023-04-11T09:09:31.623Z,59.60
2023-04-11T09:11:59.179Z,57.20
2023-04-11T09:14:28.206Z,56.40
2023-04-11T09:17:02.335Z,56.80
2023-04-11T09:19:31.986Z,56.50
2023-04-11T09:22:02.485Z,55.40
2023-04-11T09:24:31.314Z,54.20
2023-04-11T09:27:13.831Z,54.00
2023-04-11T09:29:43.330Z,55.20
2023-04-11T09:32:32.741Z,53.10
2023-04-11T09:35:09.846Z,53.60
2023-04-11T09:37:45.308Z,51.80
2023-04-11T09:40:13.159Z,52.20
2023-04-11T09:42:41.543Z,53.30
2023-04-11T09:45:23.107Z,52.60
2023-04-11T09:47:55.980Z,52.20
2023-04-11T09:50:25.253Z,52.10
2023-04-11T09:52:53.120Z,52.60
2023-04-11T09:55:25.088Z,51.40
2023-04-11T09:57:54.340Z,52.50
2023-04-11T10:00:24.461Z,51.90
2023-04-11T10:02:53.783Z,51.70
2023-04-11T10:05:27.056Z,50.50
2023-04-11T10:08:02.739Z,50.20
2023-04-11T10:10:30.201Z,49.60
2023-04-11T10:12:57.753Z,49.80
2023-04-11T10:15:24.900Z,49.40
2023-04-11T10:18:09.258Z,48.50
2023-04-11T10:20:38.021Z,48.60
2023-04-11T10:23:06.232Z,49.00
2023-04-11T10:25:51.159Z,48.10
2023-04-11T10:28:41.006Z,48.40
2023-04-11T10:31:19.116Z,47.30
2023-04-11T10:34:13.706Z,48.10
2023-04-11T10:37:06.432Z,46.90
2023-04-11T10:39:48.665Z,48.90
2023-04-11T10:42:32.165Z,48.10
2023-04-11T10:45:28.070Z,54.30
2023-04-11T10:48:07.657Z,46.90
2023-04-11T10:50:41.297Z,47.60
2023-04-11T10:53:14.417Z,46.20
2023-04-11T10:55:48.450Z,44.60
2023-04-11T10:58:19.871Z,44.90
2023-04-11T11:00:50.075Z,45.50
2023-04-11T11:03:18.162Z,45.00
2023-04-11T11:05:46.087Z,43.80
2023-04-11T11:08:13.651Z,44.10
2023-04-11T11:10:48.591Z,47.30
2023-04-11T11:13:17.077Z,45.80
2023-04-11T11:15:49.090Z,44.20
2023-04-11T11:18:18.420Z,45.40
2023-04-11T11:20:45.739Z,44.20
2023-04-11T11:23:12.837Z,44.10
2023-04-11T11:25:39.990Z,42.60
2023-04-11T11:28:09.792Z,43.00
2023-04-11T11:30:38.983Z,42.30
2023-04-11T11:33:19.949Z,43.10
2023-04-11T11:35:59.814Z,45.00
2023-04-11T11:38:29.427Z,43.40
2023-04-11T11:40:57.625Z,41.80
2023-04-11T11:43:27.605Z,43.70
2023-04-11T11:46:09.369Z,41.90
2023-04-11T11:48:37.160Z,41.80
2023-04-11T11:51:04.520Z,41.70
2023-04-11T11:53:34.694Z,39.60
2023-04-11T11:56:12.944Z,40.30
2023-04-11T11:58:44.942Z,40.80
2023-04-11T12:01:17.535Z,41.70
2023-04-11T12:03:48.834Z,39.90
2023-04-11T12:06:17.537Z,41.00
2023-04-11T12:08:54.081Z,42.10
2023-04-11T12:11:21.424Z,41.20
2023-04-11T12:13:53.032Z,39.60
2023-04-11T12:16:24.261Z,39.60
2023-04-11T12:18:53.412Z,39.80
2023-04-11T12:21:31.529Z,39.90
2023-04-11T12:23:59.002Z,41.10
2023-04-11T12:26:30.878Z,41.20
2023-04-11T12:29:00.942Z,38.80
2023-04-11T12:31:31.963Z,40.60
2023-04-11T12:34:02.045Z,39.50
2023-04-11T12:39:03.403Z,40.30
2023-04-11T12:41:33.388Z,39.50
2023-04-11T12:44:02.588Z,40.00
2023-04-11T12:46:30.099Z,39.90
2023-04-11T12:48:57.587Z,40.00
2023-04-11T12:51:25.104Z,40.10
2023-04-11T12:53:53.028Z,41.70
2023-04-11T12:56:20.151Z,40.40
2023-04-11T12:58:47.202Z,39.60
2023-04-11T13:01:14.249Z,41.10
2023-04-11T13:03:41.742Z,39.30
2023-04-11T13:06:09.160Z,40.50
2023-04-11T13:08:36.774Z,40.30
2023-04-11T13:11:06.146Z,41.50
2023-04-11T13:13:33.262Z,40.20
2023-04-11T13:16:00.914Z,38.70
2023-04-11T13:18:28.233Z,40.10
2023-04-11T13:20:55.449Z,39.30
2023-04-11T13:23:22.571Z,39.80
2023-04-11T13:25:49.767Z,39.40
2023-04-11T13:28:16.842Z,40.80
2023-04-11T13:30:43.977Z,41.90
2023-04-11T13:33:11.258Z,40.90
2023-04-11T13:35:38.571Z,40.90
2023-04-11T13:38:05.665Z,39.50
2023-04-11T13:40:34.874Z,39.60
2023-04-11T13:43:02.439Z,38.90
2023-04-11T13:45:29.794Z,38.60
2023-04-11T13:47:58.037Z,39.70
2023-04-11T13:50:25.387Z,39.50
2023-04-11T13:52:52.598Z,40.10
2023-04-11T13:55:19.802Z,41.10
2023-04-11T13:57:47.023Z,40.10
2023-04-11T14:00:14.908Z,40.40
2023-04-11T14:02:42.404Z,39.90
2023-04-11T14:05:11.640Z,39.60
2023-04-11T14:07:38.812Z,40.00
2023-04-11T14:10:06.280Z,39.80
2023-04-11T14:12:33.582Z,40.80
2023-04-11T14:15:00.720Z,40.00
2023-04-11T14:17:27.839Z,41.20
2023-04-11T14:19:54.976Z,42.10
2023-04-11T14:22:22.234Z,41.60
2023-04-11T14:24:49.324Z,42.40
2023-04-11T14:27:17.023Z,42.00
2023-04-11T14:29:44.030Z,42.60
2023-04-11T14:32:11.319Z,41.90
2023-04-11T14:34:38.496Z,43.00
2023-04-11T14:37:06.758Z,42.50
2023-04-11T14:39:34.215Z,42.60
2023-04-11T14:42:04.219Z,42.40
2023-04-11T14:44:31.400Z,42.40
2023-04-11T14:46:58.527Z,41.90
2023-04-11T14:49:26.120Z,42.20
2023-04-11T14:51:53.835Z,41.70
2023-04-11T14:54:23.333Z,41.30
2023-04-11T14:56:50.558Z,41.50
2023-04-11T14:59:17.693Z,41.50
2023-04-11T15:01:45.400Z,41.50
2023-04-11T15:04:13.356Z,40.30
2023-04-11T15:06:40.689Z,40.40
2023-04-11T15:09:08.548Z,41.50
2023-04-11T15:11:36.283Z,42.00
2023-04-11T15:14:03.291Z,42.10
2023-04-11T15:16:30.504Z,41.60
2023-04-11T15:18:57.731Z,41.10
2023-04-11T15:21:24.926Z,41.10
2023-04-11T15:23:52.211Z,41.30
2023-04-11T15:26:19.371Z,41.10
2023-04-11T15:28:47.520Z,42.30
2023-04-11T15:31:25.419Z,42.60
2023-04-11T15:33:55.431Z,41.70
2023-04-11T15:36:23.520Z,41.70
2023-04-11T15:38:52.105Z,41.80
2023-04-11T15:41:21.559Z,41.90
2023-04-11T15:43:48.764Z,42.40
2023-04-11T15:46:16.456Z,42.20
2023-04-11T15:48:43.654Z,42.30
2023-04-11T15:51:11.439Z,42.80
2023-04-11T15:53:38.586Z,42.30
2023-04-11T15:56:09.168Z,43.30
2023-04-11T15:58:36.423Z,43.00
2023-04-11T16:01:03.543Z,43.10
2023-04-11T16:03:34.090Z,43.40
2023-04-11T16:06:02.948Z,43.00
2023-04-11T16:08:30.016Z,43.80
2023-04-11T16:10:57.222Z,43.70
2023-04-11T16:13:25.200Z,43.30
2023-04-11T16:15:52.311Z,44.30
2023-04-11T16:18:19.915Z,44.10
2023-04-11T16:20:47.104Z,43.40
2023-04-11T16:23:14.198Z,44.00
2023-04-11T16:25:41.602Z,44.40
2023-04-11T16:28:08.946Z,44.00
2023-04-11T16:30:36.297Z,43.70
2023-04-11T16:33:03.453Z,43.70
2023-04-11T16:35:30.671Z,43.80
2023-04-11T16:37:58.121Z,43.70
2023-04-11T16:40:28.858Z,43.90
2023-04-11T16:42:56.461Z,43.90
2023-04-11T16:45:25.211Z,44.00
2023-04-11T16:47:53.116Z,43.70
2023-04-11T16:50:20.489Z,44.20
2023-04-11T16:52:47.670Z,44.20
2023-04-11T16:55:15.238Z,44.20
2023-04-11T16:57:42.300Z,44.60
2023-04-11T17:00:17.243Z,44.90
2023-04-11T17:02:44.859Z,45.30
2023-04-11T17:05:12.830Z,45.80
2023-04-11T17:07:39.871Z,45.70
2023-04-11T17:10:07.899Z,46.10
2023-04-11T17:12:38.393Z,46.20
2023-04-11T17:15:08.624Z,46.60
2023-04-11T17:17:36.035Z,46.80
2023-04-11T17:20:09.469Z,47.30
2023-04-11T17:22:41.502Z,47.40
2023-04-11T17:25:09.529Z,47.90
2023-04-11T17:27:36.726Z,48.20
2023-04-11T17:30:04.425Z,48.40
2023-04-11T17:32:31.757Z,48.60
2023-04-11T17:34:59.328Z,49.70
2023-04-11T17:37:27.001Z,50.50
2023-04-11T17:39:54.619Z,51.60
2023-04-11T17:42:21.877Z,51.70
2023-04-11T17:44:48.987Z,53.50
2023-04-11T17:47:16.603Z,54.50
2023-04-11T17:49:43.661Z,55.80
2023-04-11T17:52:10.964Z,55.50
2023-04-11T17:54:38.847Z,56.50
2023-04-11T17:57:06.203Z,56.50
2023-04-11T17:59:33.241Z,57.00
2023-04-11T18:02:00.995Z,57.20
2023-04-11T18:04:29.160Z,58.00
2023-04-11T18:06:58.326Z,58.40
2023-04-11T18:09:28.262Z,58.20
2023-04-11T18:11:55.829Z,58.10
2023-04-11T18:14:22.951Z,58.10
2023-04-11T18:16:50.834Z,58.80
2023-04-11T18:19:18.014Z,59.00
2023-04-11T18:21:45.110Z,58.90
2023-04-11T18:24:12.179Z,59.10
2023-04-11T18:26:39.392Z,59.60
2023-04-11T18:29:07.089Z,60.10
2023-04-11T18:31:35.451Z,61.10
2023-04-11T18:34:03.508Z,61.80
2023-04-11T18:36:32.216Z,62.80
2023-04-11T18:38:59.327Z,64.90
2023-04-11T18:41:26.796Z,66.40
2023-04-11T18:43:54.122Z,68.10
2023-04-11T18:46:21.509Z,69.50
2023-04-11T18:48:48.585Z,71.10
2023-04-11T18:51:15.579Z,72.10
2023-04-11T18:53:42.740Z,73.60
2023-04-11T18:56:10.051Z,75.20
2023-04-11T18:58:45.695Z,78.50
2023-04-11T19:01:16.554Z,81.40
2023-04-11T19:03:44.953Z,81.40
2023-04-11T19:06:13.101Z,81.10
2023-04-11T19:08:40.454Z,84.50
2023-04-11T19:11:07.580Z,84.10
2023-04-11T19:13:34.681Z,89.70
2023-04-11T19:16:02.102Z,88.20
2023-04-11T19:18:29.217Z,86.50
2023-04-11T19:20:56.635Z,90.90
2023-04-11T19:23:23.724Z,90.60
2023-04-11T19:25:51.874Z,93.40
2023-04-11T19:28:18.985Z,94.00
2023-04-11T19:30:46.768Z,94.00
2023-04-11T19:33:13.916Z,95.60
2023-04-11T19:35:42.399Z,96.30
2023-04-11T19:38:09.643Z,96.40
2023-04-11T19:40:36.770Z,96.70
2023-04-11T19:43:03.846Z,99.10
2023-04-11T19:45:32.434Z,98.60
2023-04-11T19:48:00.489Z,98.20
2023-04-11T19:50:28.041Z,98.20
2023-04-11T19:52:58.981Z,98.20
2023-04-11T19:55:27.476Z,98.90
2023-04-11T19:57:55.074Z,98.60
2023-04-11T20:00:22.902Z,99.60
2023-04-11T20:02:51.453Z,99.90
2023-04-11T20:05:21.789Z,99.90
2023-04-11T20:07:49.068Z,99.90
2023-04-11T20:10:16.960Z,99.90
2023-04-11T20:12:44.475Z,99.90
2023-04-11T20:15:12.615Z,99.80
2023-04-11T20:17:39.840Z,99.50
2023-04-11T20:20:09.119Z,99.30
2023-04-11T20:22:38.503Z,99.70
2023-04-11T20:25:07.821Z,99.90
2023-04-11T20:27:35.132Z,99.90
2023-04-11T20:30:07.001Z,99.90
2023-04-11T20:32:34.372Z,99.90
2023-04-11T20:35:04.244Z,99.90
2023-04-11T20:37:31.984Z,99.90
2023-04-11T20:39:59.303Z,99.90
2023-04-11T20:42:27.990Z,99.90
2023-04-11T20:45:02.533Z,99.90
2023-04-11T20:47:30.635Z,99.90
2023-04-11T20:50:03.500Z,99.90
2023-04-11T20:52:32.645Z,99.90
2023-04-11T20:55:00.497Z,99.90
2023-04-11T20:57:30.267Z,99.90
2023-04-11T20:59:58.161Z,99.90
2023-04-11T21:02:26.376Z,99.90
2023-04-11T21:04:56.786Z,99.90
2023-04-11T21:07:23.885Z,99.90
2023-04-11T21:09:51.159Z,99.90
2023-04-11T21:12:18.258Z,99.90
2023-04-11T21:14:45.332Z,99.90
2023-04-11T21:17:12.575Z,99.90
2023-04-11T21:19:39.961Z,99.90
2023-04-11T21:22:07.228Z,99.90
2023-04-11T21:24:35.281Z,99.90
2023-04-11T21:27:07.214Z,99.90
2023-04-11T21:29:34.346Z,99.90
2023-04-11T21:32:01.515Z,99.90
2023-04-11T21:34:28.700Z,99.90
2023-04-11T21:36:57.075Z,99.90
2023-04-11T21:39:24.228Z,99.90
2023-04-11T21:41:51.323Z,99.90
2023-04-11T21:44:18.395Z,99.90
2023-04-11T21:46:45.565Z,99.90
2023-04-11T21:49:12.690Z,99.90
2023-04-11T21:51:39.771Z,99.90
2023-04-11T21:54:06.882Z,99.90
2023-04-11T21:56:33.881Z,99.90
2023-04-11T21:59:01.122Z,99.90
2023-04-11T22:01:29.298Z,99.90
2023-04-11T22:03:59.441Z,99.90
2023-04-11T22:06:36.872Z,99.90
2023-04-11T22:09:05.561Z,99.90
2023-04-11T22:11:32.737Z,99.90
2023-04-11T22:14:03.393Z,99.90
2023-04-11T22:16:34.172Z,99.90
2023-04-11T22:19:01.763Z,99.90
2023-04-11T22:21:32.127Z,99.90
2023-04-11T22:23:59.670Z,99.90
2023-04-11T22:26:29.661Z,99.90
2023-04-11T22:29:02.739Z,99.90
2023-04-11T22:31:49.841Z,99.90
2023-04-11T22:34:18.226Z,99.90
2023-04-11T22:36:46.519Z,99.90
2023-04-11T22:39:13.790Z,99.90
2023-04-11T22:41:41.041Z,99.90
2023-04-11T22:44:08.183Z,99.90
2023-04-11T22:46:38.873Z,99.90
2023-04-11T22:49:06.896Z,99.90
2023-04-11T22:51:34.044Z,99.90
2023-04-11T22:54:02.439Z,99.90
2023-04-11T22:56:29.635Z,99.90
2023-04-11T22:58:56.706Z,99.90
2023-04-11T23:01:23.881Z,99.90
2023-04-11T23:03:51.548Z,99.90
2023-04-11T23:06:18.611Z,99.90
2023-04-11T23:08:45.774Z,99.90
2023-04-11T23:11:12.995Z,99.90
2023-04-11T23:13:40.075Z,99.90
2023-04-11T23:16:09.291Z,99.90
2023-04-11T23:18:36.415Z,99.90
2023-04-11T23:21:04.440Z,99.90
2023-04-11T23:23:31.593Z,99.90
2023-04-11T23:25:58.834Z,99.90
2023-04-11T23:28:25.923Z,99.90
2023-04-11T23:30:53.839Z,99.90
2023-04-11T23:33:22.358Z,99.90
2023-04-11T23:35:49.573Z,99.90
2023-04-11T23:38:17.260Z,99.90
2023-04-11T23:40:44.441Z,99.90
2023-04-11T23:43:11.831Z,99.90
2023-04-11T23:45:38.970Z,99.90
2023-04-11T23:48:06.981Z,99.90
2023-04-11T23:50:34.036Z,99.90
2023-04-11T23:53:01.539Z,99.90
2023-04-11T23:55:28.644Z,99.90
2023-04-11T23:57:55.878Z,99.90
